Time;durP1;ratioP1;P1;durP2;ratioP2;P2;SDS_P1;SDS_P2;PMS_P1;PMS_P2;Temp;Humidity;BMP_temperature;BMP_pressure;BME280_temperature;BME280_humidity;BME280_pressure;Samples;Min_cycle;Max_cycle;Signal;HPM_P1;HPM_P2
2022/05/16 00:00:11;;;;;;;17.48;15.77;;;;;;;22.21;57.25;99820.84;5092510;28;20035;-86
2022/05/16 00:02:36;;;;;;;15.63;14.13;;;;;;;21.60;57.17;99736.59;5074106;28;20097;-86
2022/05/16 00:05:03;;;;;;;16.98;15.18;;;;;;;22.12;56.85;99823.16;5074650;28;20489;-86
2022/05/16 00:07:29;;;;;;;17.00;15.40;;;;;;;21.32;56.75;99693.66;5092253;28;20034;-86
2022/05/16 00:09:54;;;;;;;17.45;15.60;;;;;;;20.93;56.63;99642.53;5092328;28;20511;-86
2022/05/16 00:12:20;;;;;;;17.63;15.82;;;;;;;21.53;56.82;99739.41;5074251;28;20515;-85
2022/05/16 00:14:46;;;;;;;19.05;17.15;;;;;;;21.80;57.00;99789.84;5074401;28;20032;-87
2022/05/16 00:17:12;;;;;;;18.20;16.42;;;;;;;21.44;57.37;99750.81;5074204;28;20035;-88
2022/05/16 00:19:39;;;;;;;17.17;15.45;;;;;;;20.80;57.55;99653.53;5074431;28;20024;-86
2022/05/16 00:22:05;;;;;;;17.10;15.30;;;;;;;21.76;57.88;99820.94;5092407;28;20031;-86
2022/05/16 00:24:31;;;;;;;17.13;15.32;;;;;;;20.82;57.93;99707.81;5074147;28;20407;-86
2022/05/16 00:26:58;;;;;;;16.60;15.20;;;;;;;21.03;57.79;99725.09;5092287;28;20028;-86
2022/05/16 00:29:25;;;;;;;17.20;15.50;;;;;;;20.62;57.41;99654.56;5092318;28;20051;-86
2022/05/16 00:31:51;;;;;;;15.65;14.25;;;;;;;20.96;57.58;99714.53;5074065;28;20028;-86
2022/05/16 00:34:17;;;;;;;15.60;14.10;;;;;;;20.58;57.16;99656.13;5092525;28;20559;-86
2022/05/16 00:36:48;;;;;;;14.57;13.23;;;;;;;20.77;57.24;99724.63;5074080;28;20024;-86
2022/05/16 00:39:18;;;;;;;14.27;13.02;;;;;;;21.45;57.08;99817.72;5092086;28;20056;-86
2022/05/16 00:41:44;;;;;;;14.77;13.45;;;;;;;20.92;56.90;99741.03;5092339;28;20082;-86
2022/05/16 00:44:11;;;;;;;14.02;12.73;;;;;;;21.09;57.23;99772.47;5073857;28;20024;-87
2022/05/16 00:46:36;;;;;;;13.68;12.27;;;;;;;21.52;57.36;99849.81;5073797;28;20036;-87
2022/05/16 00:49:06;;;;;;;14.27;12.60;;;;;;;21.48;57.44;99833.34;5073848;28;20028;-86
2022/05/16 00:51:37;;;;;;;14.50;13.02;;;;;;;21.44;57.43;99834.91;5073682;28;20042;-88
2022/05/16 00:54:14;;;;;;;13.43;12.00;;;;;;;21.23;57.71;99803.34;5091943;28;20027;-88
2022/05/16 00:56:39;;;;;;;12.40;11.30;;;;;;;20.78;57.49;99736.97;5073251;28;20489;-86
2022/05/16 00:59:05;;;;;;;12.60;11.43;;;;;;;20.60;57.25;99727.25;5091820;28;20035;-87
2022/05/16 01:06:59;;;;;;;13.77;12.35;;;;;;;21.26;57.67;99835.09;5091731;28;20043;-88
2022/05/16 01:09:25;;;;;;;13.02;11.80;;;;;;;20.52;57.57;99719.59;5091980;28;20028;-88
2022/05/16 01:11:51;;;;;;;13.13;11.85;;;;;;;19.62;57.91;99582.59;5091530;28;20519;-88
2022/05/16 01:14:53;;;;;;;13.82;12.57;;;;;;;21.12;58.56;99841.78;5073638;28;20052;-88
2022/05/16 01:17:19;;;;;;;13.48;12.27;;;;;;;20.33;58.30;99738.72;5091686;28;20024;-87
2022/05/16 01:19:45;;;;;;;13.57;12.27;;;;;;;20.50;58.55;99806.72;5073557;28;20034;-87
2022/05/16 01:22:33;;;;;;;13.82;12.43;;;;;;;20.74;58.56;99816.31;5091739;28;20028;-87
2022/05/16 01:25:04;;;;;;;13.60;12.40;;;;;;;19.54;58.47;99653.41;5091605;28;20052;-87
2022/05/16 01:27:58;;;;;;;14.57;13.27;;;;;;;20.73;58.34;99843.41;5091397;28;20016;-87
2022/05/16 01:30:28;;;;;;;14.57;13.27;;;;;;;20.61;58.54;99843.44;5091742;28;20028;-86
2022/05/16 01:32:53;;;;;;;14.88;13.52;;;;;;;19.76;58.78;99719.78;5073524;28;20054;-87
2022/05/16 01:35:21;;;;;;;14.52;13.13;;;;;;;19.31;58.81;99670.22;5073548;28;20047;-87
2022/05/16 01:40:31;;;;;;;14.20;12.90;;;;;;;20.14;58.77;99815.81;5091885;28;20050;-87
2022/05/16 01:42:56;;;;;;;13.00;12.00;;;;;;;19.27;58.70;99677.09;5091298;28;20016;-87
2022/05/16 01:45:22;;;;;;;13.35;12.25;;;;;;;19.16;58.72;99666.38;5091238;28;20554;-87
2022/05/16 01:47:47;;;;;;;13.23;12.02;;;;;;;20.12;58.71;99820.59;5072866;28;20024;-87
2022/05/16 01:50:13;;;;;;;13.77;12.52;;;;;;;19.42;58.60;99716.81;5091127;28;20093;-87
2022/05/16 01:52:38;;;;;;;14.35;12.88;;;;;;;19.37;58.89;99724.75;5091006;28;20054;-87
2022/05/16 01:55:05;;;;;;;14.27;12.95;;;;;;;19.27;58.97;99735.16;5072919;28;20028;-87
2022/05/16 01:57:30;;;;;;;14.38;13.07;;;;;;;19.14;59.00;99719.31;5091352;28;20016;-87
2022/05/16 01:59:56;;;;;;;14.55;13.30;;;;;;;18.79;59.15;99669.19;5073520;28;20496;-87
2022/05/16 02:02:21;;;;;;;13.73;12.45;;;;;;;19.22;58.88;99743.06;5073225;28;20020;-87
2022/05/16 02:04:47;;;;;;;13.60;12.25;;;;;;;18.65;58.98;99657.06;5091305;28;20016;-87
2022/05/16 02:07:12;;;;;;;12.68;11.48;;;;;;;19.32;58.90;99784.34;5075269;28;20027;-87
2022/05/16 02:09:37;;;;;;;13.38;12.18;;;;;;;19.66;58.86;99841.72;5094950;28;20498;-87
2022/05/16 02:12:03;;;;;;;13.25;12.10;;;;;;;19.34;58.64;99795.63;5094921;28;20606;-87
2022/05/16 02:14:28;;;;;;;13.95;12.55;;;;;;;18.07;58.70;99601.44;5094547;28;20073;-87
2022/05/16 02:16:54;;;;;;;13.55;12.27;;;;;;;19.23;58.60;99803.59;5094344;28;20484;-87
2022/05/16 02:19:19;;;;;;;12.80;11.60;;;;;;;19.80;58.55;99884.38;5094394;28;20028;-87
2022/05/16 02:24:42;;;;;;;12.40;11.27;;;;;;;19.84;58.30;99899.78;5094748;28;20113;-87
2022/05/16 02:27:16;;;;;;;12.65;11.55;;;;;;;19.00;58.27;99738.25;5076082;28;20032;-87
2022/05/16 02:29:42;;;;;;;13.93;12.10;;;;;;;19.15;58.39;99777.16;5076498;28;20020;-87
2022/05/16 02:32:08;;;;;;;12.90;11.77;;;;;;;19.65;58.49;99871.44;5076315;28;20032;-87
2022/05/16 02:34:34;;;;;;;13.02;11.88;;;;;;;18.71;58.56;99726.50;5094641;28;20104;-87
2022/05/16 02:36:59;;;;;;;13.15;11.95;;;;;;;18.99;58.51;99779.44;5076409;28;20071;-87
2022/05/16 02:39:26;;;;;;;13.55;12.15;;;;;;;19.35;58.73;99832.06;5094146;28;20051;-87
2022/05/16 02:41:52;;;;;;;12.90;11.60;;;;;;;19.36;58.63;99824.84;5094572;28;20420;-88
2022/05/16 02:44:17;;;;;;;13.45;12.05;;;;;;;19.59;58.65;99864.31;5094492;28;20092;-87
2022/05/16 02:46:43;;;;;;;12.35;11.15;;;;;;;18.67;58.46;99725.31;5094337;28;20028;-87
2022/05/16 02:49:09;;;;;;;13.52;12.18;;;;;;;19.16;58.65;99802.88;5094422;28;20122;-87
2022/05/16 02:51:34;;;;;;;12.52;11.32;;;;;;;19.48;58.74;99873.91;5076163;28;20413;-87
2022/05/16 02:54:00;;;;;;;14.50;12.38;;;;;;;19.03;58.74;99822.59;5076231;28;20466;-87
2022/05/16 02:56:25;;;;;;;13.18;11.88;;;;;;;18.37;58.80;99709.19;5075923;28;20023;-87
2022/05/16 02:58:51;;;;;;;12.55;11.40;;;;;;;18.53;58.90;99728.34;5076173;28;20028;-87
2022/05/16 03:01:17;;;;;;;14.77;11.95;;;;;;;18.46;58.76;99733.78;5076158;28;20060;-88
2022/05/16 03:03:42;;;;;;;13.65;12.25;;;;;;;18.72;58.82;99756.75;5076232;28;20024;-87
2022/05/16 03:06:09;;;;;;;13.95;12.27;;;;;;;19.36;58.76;99863.16;5075624;28;20031;-87
2022/05/16 03:08:35;;;;;;;12.38;11.18;;;;;;;18.71;58.56;99749.75;5075704;28;20480;-87
2022/05/16 03:11:02;;;;;;;12.35;11.15;;;;;;;17.78;58.42;99598.47;5075840;28;20028;-87
2022/05/16 03:13:27;;;;;;;12.85;11.65;;;;;;;19.01;58.40;99816.66;5075367;28;20046;-87
2022/05/16 03:15:53;;;;;;;12.73;11.48;;;;;;;18.85;58.49;99804.72;5075476;28;20016;-87
2022/05/16 03:18:18;;;;;;;11.63;10.63;;;;;;;18.93;58.32;99804.41;5074835;28;20111;-87
2022/05/16 03:20:44;;;;;;;11.93;10.68;;;;;;;19.41;58.17;99899.16;5093597;28;20107;-87
2022/05/16 03:23:09;;;;;;;12.55;11.35;;;;;;;18.23;57.94;99688.19;5093619;28;20052;-87
2022/05/16 03:25:35;;;;;;;12.77;11.35;;;;;;;19.08;57.93;99830.78;5075143;28;20023;-87
2022/05/16 03:28:00;;;;;;;12.75;11.10;;;;;;;18.91;57.98;99811.03;5093378;28;20020;-87
2022/05/16 03:30:26;;;;;;;12.00;10.90;;;;;;;18.87;58.03;99825.91;5093725;28;20030;-87
2022/05/16 03:32:52;;;;;;;11.32;10.43;;;;;;;18.36;57.98;99768.25;5093416;28;20030;-87
2022/05/16 03:35:18;;;;;;;11.63;10.63;;;;;;;18.53;58.06;99792.50;5075339;28;20393;-87
2022/05/16 03:37:43;;;;;;;12.15;10.95;;;;;;;19.13;58.06;99889.78;5075221;28;20507;-87
2022/05/16 03:42:53;;;;;;;11.73;10.68;;;;;;;19.05;58.14;99890.91;5093252;28;20084;-87
2022/05/16 03:45:19;;;;;;;12.90;10.63;;;;;;;18.44;58.02;99805.38;5093584;28;20020;-87
2022/05/16 03:47:45;;;;;;;12.38;10.40;;;;;;;19.06;57.96;99902.44;5093270;28;20035;-87
2022/05/16 03:50:11;;;;;;;11.82;10.65;;;;;;;19.07;58.10;99889.88;5093543;28;20020;-87
2022/05/16 03:52:38;;;;;;;11.68;10.52;;;;;;;18.28;58.06;99780.03;5093249;28;20416;-87
2022/05/16 03:55:05;;;;;;;11.40;10.32;;;;;;;18.76;57.84;99846.19;5093286;28;20020;-87
2022/05/16 03:57:31;;;;;;;11.10;10.10;;;;;;;18.33;57.84;99772.16;5074512;28;20495;-87
2022/05/16 03:59:57;;;;;;;11.77;10.68;;;;;;;18.67;57.91;99836.84;5092381;28;20051;-87
2022/05/16 04:02:22;;;;;;;12.65;11.32;;;;;;;18.61;57.93;99833.22;5092259;28;20502;-87
2022/05/16 04:04:48;;;;;;;11.90;10.80;;;;;;;18.67;58.00;99844.88;5074382;28;20023;-87
2022/05/16 04:07:14;;;;;;;11.75;10.75;;;;;;;18.62;57.94;99837.50;5074124;28;20035;-88
2022/05/16 04:09:39;;;;;;;12.73;11.40;;;;;;;18.63;57.76;99827.63;5092428;28;20023;-87
2022/05/16 04:12:06;;;;;;;11.82;10.73;;;;;;;19.12;57.78;99908.75;5092384;28;20015;-87
2022/05/16 04:14:32;;;;;;;11.73;10.73;;;;;;;18.91;57.61;99894.78;5093037;28;20098;-87
2022/05/16 04:16:58;;;;;;;12.35;11.20;;;;;;;18.61;57.60;99827.84;5074691;28;20516;-87
2022/05/16 04:19:24;;;;;;;13.45;11.05;;;;;;;18.05;57.51;99735.28;5092811;28;20019;-87
2022/05/16 04:21:50;;;;;;;13.13;11.35;;;;;;;18.61;57.45;99841.22;5092872;28;20504;-87
2022/05/16 04:24:15;;;;;;;11.52;10.43;;;;;;;18.86;57.53;99865.22;5074754;28;20404;-87
2022/05/16 04:26:42;;;;;;;13.25;10.73;;;;;;;18.61;57.43;99824.34;5092549;28;20523;-87
2022/05/16 04:29:07;;;;;;;15.27;10.77;;;;;;;18.84;57.51;99853.09;5092687;28;20051;-87
2022/05/16 04:31:32;;;;;;;12.85;11.13;;;;;;;18.05;57.39;99732.59;5073919;28;20488;-87
2022/05/16 04:33:58;;;;;;;12.65;11.35;;;;;;;19.15;57.54;99913.66;5092297;28;20024;-88
2022/05/16 04:36:23;;;;;;;11.65;10.40;;;;;;;18.46;57.34;99807.81;5074398;28;20048;-87
2022/05/16 04:38:49;;;;;;;13.20;11.23;;;;;;;18.07;57.21;99708.31;5092383;28;20064;-87
2022/05/16 04:43:58;;;;;;;11.98;10.88;;;;;;;19.14;57.03;99863.84;5092845;28;20023;-87
2022/05/16 04:46:23;;;;;;;12.30;10.80;;;;;;;19.42;57.02;99901.59;5092833;28;20412;-88
2022/05/16 04:48:49;;;;;;;12.35;10.93;;;;;;;18.84;56.83;99807.63;5074660;28;20020;-88
2022/05/16 04:51:14;;;;;;;12.63;10.98;;;;;;;18.96;56.94;99845.97;5096140;28;20020;-87
2022/05/16 04:53:40;;;;;;;12.98;10.38;;;;;;;18.78;57.12;99803.19;5095574;28;20046;-86
2022/05/16 04:56:05;;;;;;;12.75;10.82;;;;;;;19.62;57.00;99947.69;5112274;28;20024;-85
2022/05/16 04:58:34;;;;;;;11.75;10.68;;;;;;;19.22;57.08;99869.69;5083375;28;20024;-87
2022/05/16 05:01:00;;;;;;;11.90;10.80;;;;;;;19.13;57.12;99868.38;5074760;28;20457;-87
2022/05/16 05:03:26;;;;;;;17.27;11.75;;;;;;;18.86;57.13;99794.84;5074857;28;20031;-87
2022/05/16 05:05:52;;;;;;;11.90;10.57;;;;;;;18.96;57.02;99811.16;5092365;28;20413;-87
2022/05/16 05:08:18;;;;;;;12.60;11.23;;;;;;;19.02;56.75;99815.63;5091662;28;20051;-87
2022/05/16 05:16:14;;;;;;;10.57;9.55;;;;;;;19.64;56.23;99883.19;5091791;28;20062;-87
2022/05/16 05:18:41;;;;;;;13.88;9.90;;;;;;;19.98;56.78;99952.13;5073307;28;20039;-88
2022/05/16 05:21:07;;;;;;;11.77;10.35;;;;;;;19.00;56.64;99791.75;5073633;28;20470;-87
2022/05/16 05:23:34;;;;;;;10.93;9.93;;;;;;;19.48;56.50;99844.44;5091869;28;20075;-88
2022/05/16 05:26:00;;;;;;;12.98;9.57;;;;;;;20.18;56.40;99949.16;5091428;28;20107;-87
2022/05/16 05:28:26;;;;;;;11.10;10.00;;;;;;;19.21;56.48;99777.06;5073184;28;20020;-87
2022/05/16 05:30:51;;;;;;;11.43;9.07;;;;;;;19.83;56.59;99875.88;5073298;28;20553;-87
2022/05/16 05:33:17;;;;;;;11.88;9.05;;;;;;;20.18;56.67;99924.22;5077967;28;20028;-87
2022/05/16 05:35:42;;;;;;;12.77;9.48;;;;;;;19.55;56.56;99839.84;5086102;28;20412;-87
2022/05/16 05:38:09;;;;;;;11.00;8.65;;;;;;;20.15;56.09;99916.63;5083466;28;20035;-87
2022/05/16 05:40:35;;;;;;;11.00;9.70;;;;;;;20.37;56.39;99924.94;5077206;28;20025;-87
2022/05/16 05:43:05;;;;;;;10.73;8.30;;;;;;;20.56;56.42;99932.66;5056511;28;20080;-87
2022/05/16 05:45:30;;;;;;;10.88;8.90;;;;;;;20.74;56.51;99966.59;5052602;28;20025;-87
2022/05/16 05:47:56;;;;;;;10.10;9.10;;;;;;;19.25;56.56;99721.19;5045011;28;20021;-87
2022/05/16 05:50:21;;;;;;;11.10;9.85;;;;;;;20.25;56.64;99857.88;5024707;28;20094;-87
2022/05/16 05:52:47;;;;;;;12.40;11.05;;;;;;;20.52;56.65;99895.81;5037603;28;20163;-87
2022/05/16 05:55:12;;;;;;;15.02;13.57;;;;;;;20.78;56.95;99948.16;5055224;28;20021;-87
2022/05/16 05:57:38;;;;;;;17.50;14.95;;;;;;;20.39;57.18;99871.88;5055510;28;20082;-87
2022/05/16 06:00:05;;;;;;;16.73;15.00;;;;;;;20.92;57.25;99950.41;5055117;28;20013;-87
2022/05/16 06:02:31;;;;;;;17.98;16.13;;;;;;;21.02;57.42;99970.47;5054761;28;20021;-87
2022/05/16 06:04:56;;;;;;;17.83;16.13;;;;;;;20.18;57.32;99838.44;5053285;28;20181;-87
2022/05/16 06:07:22;;;;;;;19.67;17.88;;;;;;;21.17;57.50;99960.03;5036637;28;20021;-87
2022/05/16 06:09:47;;;;;;;21.98;19.73;;;;;;;20.51;58.06;99844.03;5053476;28;20032;-87
2022/05/16 06:12:13;;;;;;;20.63;18.65;;;;;;;20.74;58.16;99879.91;5037007;28;20055;-87
2022/05/16 06:14:38;;;;;;;21.27;19.10;;;;;;;21.13;58.43;99926.66;5054252;28;20024;-87
2022/05/16 06:17:04;;;;;;;23.40;21.40;;;;;;;20.50;58.36;99822.81;5054584;28;20013;-87
2022/05/16 06:19:30;;;;;;;22.13;20.02;;;;;;;21.14;58.68;99936.34;5054372;28;20036;-87
2022/05/16 06:21:55;;;;;;;25.70;23.50;;;;;;;20.54;58.81;99832.00;5025810;28;20420;-87
2022/05/16 06:27:06;;;;;;;23.98;21.40;;;;;;;21.42;58.85;99970.50;5036755;28;20100;-87
2022/05/16 06:29:31;;;;;;;22.80;20.77;;;;;;;21.34;59.31;99931.41;5054212;28;20460;-86
2022/05/16 06:31:57;;;;;;;20.35;18.50;;;;;;;20.85;59.27;99841.53;5053865;28;20036;-86
2022/05/16 06:34:22;;;;;;;25.20;22.80;;;;;;;21.15;59.26;99881.59;5036074;28;20436;-87
2022/05/16 06:36:48;;;;;;;23.88;21.73;;;;;;;20.82;59.36;99821.34;5050848;28;20429;-86
2022/05/16 06:39:14;;;;;;;23.52;21.48;;;;;;;21.72;59.48;99963.06;5040272;28;20038;-87
2022/05/16 06:41:40;;;;;;;25.85;23.45;;;;;;;21.79;59.33;99952.16;5043991;28;20032;-87
2022/05/16 06:44:05;;;;;;;22.35;20.35;;;;;;;21.55;59.35;99911.13;5034007;28;20016;-87
2022/05/16 06:46:31;;;;;;;24.70;22.30;;;;;;;21.50;59.25;99894.91;5052590;28;20029;-86
2022/05/16 06:48:56;;;;;;;21.42;19.42;;;;;;;21.66;59.51;99907.59;5052377;28;20477;-86
2022/05/16 06:51:22;;;;;;;22.45;20.55;;;;;;;21.23;59.38;99832.91;5052898;28;20041;-86
2022/05/16 06:53:48;;;;;;;23.08;20.95;;;;;;;21.51;59.45;99857.06;5034359;28;20033;-87
2022/05/16 06:56:13;;;;;;;22.15;20.17;;;;;;;21.45;59.56;99849.97;5052427;28;20021;-87
2022/05/16 06:58:39;;;;;;;23.42;21.42;;;;;;;21.18;59.49;99800.56;5051561;28;20469;-87
2022/05/16 07:01:05;;;;;;;23.35;21.20;;;;;;;21.75;59.13;99857.75;5040827;28;20017;-87
2022/05/16 07:03:32;;;;;;;20.50;18.63;;;;;;;22.14;58.73;99907.09;5043479;28;20503;-85
2022/05/16 07:05:58;;;;;;;21.48;19.45;;;;;;;21.78;58.75;99848.41;5043920;28;20027;-86
2022/05/16 07:08:24;;;;;;;20.42;18.65;;;;;;;21.43;58.77;99811.78;5037617;28;20025;-84
2022/05/16 07:10:50;;;;;;;20.33;18.15;;;;;;;21.76;58.40;99829.00;5030143;28;20028;-86
2022/05/16 07:13:16;;;;;;;18.42;16.73;;;;;;;22.57;57.83;99943.28;5037584;28;20027;-86
2022/05/16 07:15:42;;;;;;;17.85;16.25;;;;;;;21.80;57.38;99809.47;5036739;28;20155;-86
2022/05/16 07:18:08;;;;;;;17.38;15.88;;;;;;;22.70;57.04;99944.81;5052390;28;20155;-86
2022/05/16 07:20:35;;;;;;;19.92;18.08;;;;;;;22.02;57.20;99825.66;5053057;28;20123;-86
2022/05/16 07:23:01;;;;;;;19.85;17.90;;;;;;;22.81;57.24;99944.75;5053240;28;20096;-86
2022/05/16 07:25:27;;;;;;;21.73;19.73;;;;;;;22.85;57.00;99934.28;5018932;28;20055;-86
2022/05/16 07:27:56;;;;;;;20.25;18.20;;;;;;;22.66;56.66;99882.59;5032914;28;20032;-86
2022/05/16 07:30:24;;;;;;;19.27;17.67;;;;;;;22.91;56.54;99910.94;5037331;28;20059;-86
2022/05/16 07:32:51;;;;;;;17.55;15.95;;;;;;;22.63;56.43;99871.50;5033231;28;20049;-85
2022/05/16 07:35:18;;;;;;;17.75;16.00;;;;;;;22.63;56.33;99845.41;5033000;28;20473;-85
2022/05/16 07:37:45;;;;;;;19.10;17.40;;;;;;;22.63;56.05;99841.91;5041512;28;20122;-84
2022/05/16 07:40:11;;;;;;;16.90;15.27;;;;;;;23.31;56.33;99943.78;5052559;28;20055;-86
2022/05/16 07:42:38;;;;;;;17.30;15.65;;;;;;;22.63;55.95;99818.50;5034904;28;20037;-86
2022/05/16 07:45:07;;;;;;;18.58;16.88;;;;;;;23.49;55.71;99937.25;5034927;28;20032;-85
2022/05/16 07:47:33;;;;;;;17.55;16.15;;;;;;;23.55;55.68;99930.06;5050478;28;20032;-86
2022/05/16 07:50:00;;;;;;;16.92;15.43;;;;;;;23.21;55.51;99865.53;5034750;28;20029;-86
2022/05/16 07:52:27;;;;;;;16.35;14.85;;;;;;;23.38;55.25;99881.63;5052595;28;20021;-85
2022/05/16 07:54:53;;;;;;;15.63;14.23;;;;;;;23.76;54.98;99934.59;5038587;28;20033;-86
2022/05/16 07:57:19;;;;;;;14.63;13.25;;;;;;;23.85;54.72;99938.47;5032620;28;20036;-86
2022/05/16 07:59:46;;;;;;;17.10;15.68;;;;;;;23.54;54.64;99863.72;5051591;28;20417;-86
2022/05/16 08:02:13;;;;;;;15.93;14.43;;;;;;;24.04;54.32;99931.63;5031114;28;20025;-86
2022/05/16 08:04:39;;;;;;;16.40;14.98;;;;;;;24.11;53.98;99942.22;5050168;28;20499;-85
2022/05/16 08:07:04;;;;;;;15.93;14.55;;;;;;;23.81;53.79;99885.31;5014261;28;20029;-86
2022/05/16 08:12:36;;;;;;;14.75;13.48;;;;;;;24.29;52.80;99932.94;5051409;28;20072;-86
2022/05/16 08:15:03;;;;;;;15.63;14.15;;;;;;;23.80;52.96;99838.66;5051835;28;20106;-85
2022/05/16 08:17:29;;;;;;;17.40;15.80;;;;;;;23.58;52.93;99770.53;5051968;28;20017;-85
2022/05/16 08:19:58;;;;;;;16.15;14.85;;;;;;;24.75;52.21;99934.09;5035990;28;20414;-86
2022/05/16 08:22:32;;;;;;;17.83;16.27;;;;;;;24.64;51.93;99892.72;5048232;28;20433;-85
2022/05/16 08:24:58;;;;;;;11.95;10.75;;;;;;;24.07;50.60;99788.16;5042982;28;20017;-85
2022/05/16 08:27:25;;;;;;;13.85;12.45;;;;;;;24.04;50.26;99785.16;5041424;28;20037;-86
2022/05/16 08:29:50;;;;;;;12.75;11.68;;;;;;;24.32;49.81;99811.81;5050877;28;20029;-86
2022/05/16 08:32:19;;;;;;;17.95;14.02;;;;;;;25.09;49.44;99925.63;5051974;28;20053;-86
2022/05/16 08:34:46;;;;;;;15.70;13.90;;;;;;;25.15;49.24;99936.19;5051889;28;20494;-84
2022/05/16 08:40:01;;;;;;;14.32;12.88;;;;;;;25.43;48.69;99937.69;5079581;28;20071;-86
2022/05/16 08:42:42;;;;;;;14.30;12.88;;;;;;;25.57;48.21;99913.66;5079295;28;20505;-86
2022/05/16 08:45:36;;;;;;;11.98;10.98;;;;;;;25.58;48.27;99888.22;5073649;28;20026;-86
2022/05/16 08:48:08;;;;;;;17.95;16.20;;;;;;;26.03;47.17;99922.69;5071998;28;20028;-84
2022/05/16 08:50:57;;;;;;;13.27;12.18;;;;;;;25.54;46.95;99822.25;5063540;28;20032;-85
2022/05/16 08:53:31;;;;;;;13.15;12.07;;;;;;;25.54;46.06;99811.44;5052040;28;20021;-85
2022/05/16 08:56:03;;;;;;;11.55;10.27;;;;;;;26.27;46.04;99918.34;5051697;28;20025;-85
2022/05/16 08:59:03;;;;;;;11.60;10.63;;;;;;;26.37;45.34;99919.44;5068003;28;20029;-84
2022/05/16 09:01:55;;;;;;;12.52;11.27;;;;;;;26.46;45.52;99917.81;5032054;28;20483;-85
2022/05/16 09:04:30;;;;;;;11.25;10.45;;;;;;;26.36;45.57;99867.19;5071179;28;20020;-85
2022/05/16 09:07:09;;;;;;;20.65;18.60;;;;;;;26.06;45.45;99762.47;5091420;28;20123;-85
2022/05/16 09:09:47;;;;;;;19.02;17.17;;;;;;;27.18;44.70;99909.22;5055686;28;20038;-85
2022/05/16 09:12:17;;;;;;;13.65;12.23;;;;;;;27.25;44.00;99905.41;5071722;28;20032;-84
2022/05/16 09:14:52;;;;;;;11.98;10.75;;;;;;;27.42;43.57;99903.94;5071684;28;20024;-85
2022/05/16 09:17:26;;;;;;;10.20;9.20;;;;;;;27.65;42.65;99893.56;5093374;28;20496;-85
2022/05/16 09:20:06;;;;;;;9.82;9.10;;;;;;;27.38;41.86;99892.03;5078166;28;20034;-84
2022/05/16 09:22:40;;;;;;;10.48;9.68;;;;;;;26.95;41.99;99893.56;5075281;28;20016;-85
2022/05/16 09:25:17;;;;;;;12.27;11.18;;;;;;;26.54;42.34;99844.13;5076669;28;20024;-84
2022/05/16 09:30:31;;;;;;;11.63;10.50;;;;;;;27.56;41.53;99903.34;5073745;28;20031;-85
2022/05/16 09:33:06;;;;;;;11.38;10.48;;;;;;;26.94;40.51;99751.03;5057209;28;20020;-84
2022/05/16 09:35:37;;;;;;;11.98;10.90;;;;;;;28.16;39.74;99878.47;5075448;28;20024;-84
2022/05/16 09:38:03;;;;;;;;;;;;;;;28.15;40.06;99874.13;5056639;28;20023;-85
2022/05/16 09:40:40;;;;;;;10.40;9.40;;;;;;;28.37;38.90;99876.41;5054605;28;20022;-84
2022/05/16 09:43:20;;;;;;;11.57;9.82;;;;;;;28.24;38.42;99821.94;5050843;28;20029;-84
2022/05/16 09:45:52;;;;;;;10.07;9.27;;;;;;;28.15;38.24;99843.47;5044333;28;20021;-84
2022/05/16 09:48:21;;;;;;;10.48;9.30;;;;;;;28.89;37.64;99873.97;5052725;28;20544;-84
2022/05/16 09:51:01;;;;;;;9.93;9.05;;;;;;;28.46;36.19;99763.31;5050647;28;20112;-84
2022/05/16 09:53:41;;;;;;;9.40;8.50;;;;;;;29.31;35.88;99867.72;5045276;28;20461;-83
2022/05/16 09:56:28;;;;;;;10.60;9.52;;;;;;;28.51;35.82;99718.19;5038252;28;20422;-86
2022/05/16 09:59:00;;;;;;;10.00;8.93;;;;;;;29.50;36.39;99854.94;5056133;28;20020;-85
2022/05/16 10:01:45;;;;;;;10.80;9.73;;;;;;;29.83;36.18;99863.97;5053442;28;20029;-85
2022/05/16 10:04:17;;;;;;;10.80;9.73;;;;;;;29.94;35.87;99862.69;5034488;28;20029;-85
2022/05/16 10:06:55;;;;;;;10.85;9.65;;;;;;;29.21;35.69;99716.38;5034752;28;20029;-85
2022/05/16 10:09:28;;;;;;;11.27;10.38;;;;;;;29.98;35.85;99847.38;5019224;28;20366;-84
2022/05/16 10:11:53;;;;;;;12.38;11.15;;;;;;;29.69;35.78;99819.53;5035301;28;20017;-83
2022/05/16 10:14:19;;;;;;;16.67;15.00;;;;;;;29.54;35.81;99717.22;5053932;28;20021;-84
2022/05/16 10:16:49;;;;;;;10.40;9.35;;;;;;;29.99;35.24;99747.44;5054363;28;20486;-84
2022/05/16 10:19:22;;;;;;;9.88;8.85;;;;;;;29.96;34.54;99737.16;5039909;28;20452;-85
2022/05/16 10:22:03;;;;;;;8.52;7.93;;;;;;;30.75;33.95;99829.66;5053366;28;20108;-84
2022/05/16 10:24:32;;;;;;;9.32;8.43;;;;;;;30.60;33.72;99792.63;5053909;28;20029;-85
2022/05/16 10:27:06;;;;;;;10.50;8.95;;;;;;;29.96;33.51;99679.97;5053266;28;20053;-84
2022/05/16 10:29:36;;;;;;;10.23;9.30;;;;;;;31.02;33.63;99810.50;5033506;28;20100;-85
2022/05/16 10:35:04;;;;;;;9.95;9.00;;;;;;;30.72;32.04;99692.03;5053651;28;20056;-85
2022/05/16 10:37:31;;;;;;;9.00;7.90;;;;;;;31.36;32.25;99771.84;5053852;28;20025;-84
2022/05/16 10:40:29;;;;;;;10.57;9.50;;;;;;;30.77;32.32;99783.81;5050537;28;20060;-84
2022/05/16 10:43:01;;;;;;;10.55;9.05;;;;;;;30.60;33.41;99789.88;5048634;28;20040;-84
2022/05/16 10:45:31;;;;;;;9.93;9.13;;;;;;;30.38;33.04;99694.38;5051864;28;20032;-84
2022/05/16 10:48:06;;;;;;;9.35;8.60;;;;;;;31.23;32.64;99773.53;5051277;28;20105;-84
2022/05/16 10:50:32;;;;;;;11.18;10.07;;;;;;;31.28;32.38;99767.16;5052381;28;20017;-84
2022/05/16 10:53:04;;;;;;;9.88;9.13;;;;;;;31.26;31.59;99744.81;5055790;28;20051;-84
2022/05/16 10:55:39;;;;;;;9.82;8.93;;;;;;;31.15;31.68;99716.16;5042901;28;20029;-84
2022/05/16 10:58:15;;;;;;;10.77;9.77;;;;;;;31.22;30.71;99711.91;5058607;28;20040;-83
2022/05/16 11:01:00;;;;;;;8.27;7.57;;;;;;;31.06;30.83;99639.69;5074314;28;20021;-83
2022/05/16 11:03:55;;;;;;;9.25;8.48;;;;;;;31.99;30.48;99731.78;5063552;28;20487;-83
2022/05/16 11:06:46;;;;;;;10.68;8.63;;;;;;;31.89;30.39;99691.88;5051658;28;20029;-84
2022/05/16 11:09:34;;;;;;;8.15;7.35;;;;;;;31.90;29.24;99677.09;5053403;28;20533;-83
2022/05/16 11:12:06;;;;;;;6.93;6.28;;;;;;;31.63;29.69;99609.84;5053528;28;20029;-83
2022/05/16 11:15:06;;;;;;;9.27;8.45;;;;;;;32.36;28.56;99709.44;5053401;28;20020;-84
2022/05/16 11:18:04;;;;;;;8.80;7.55;;;;;;;32.87;28.78;99740.75;5053021;28;20036;-85
2022/05/16 11:20:38;;;;;;;7.80;7.10;;;;;;;32.20;28.34;99642.66;5053324;28;20025;-83
2022/05/16 11:23:12;;;;;;;6.75;6.10;;;;;;;32.01;28.41;99609.38;5053291;28;20033;-85
2022/05/16 11:25:51;;;;;;;7.18;6.25;;;;;;;32.60;27.88;99680.84;5052651;28;20032;-85
2022/05/16 11:28:29;;;;;;;7.18;6.57;;;;;;;32.27;28.09;99669.53;5052166;28;20044;-85
2022/05/16 11:31:02;;;;;;;6.65;6.00;;;;;;;31.60;27.13;99525.88;5048749;28;20060;-84
2022/05/16 11:33:52;;;;;;;11.10;7.32;;;;;;;31.99;27.34;99548.81;5051660;28;20028;-85
2022/05/16 11:36:36;;;;;;;8.35;7.65;;;;;;;33.21;26.69;99715.31;5052073;28;20037;-84
2022/05/16 11:39:07;;;;;;;8.23;7.53;;;;;;;32.98;26.39;99645.50;5033685;28;20048;-86
2022/05/16 11:41:48;;;;;;;6.82;6.22;;;;;;;33.59;26.53;99715.44;5052508;28;20029;-84
2022/05/16 11:44:42;;;;;;;7.60;6.97;;;;;;;33.73;26.31;99705.06;5034113;28;20036;-84
2022/05/16 11:47:32;;;;;;;7.95;6.75;;;;;;;33.79;26.30;99689.25;5052805;28;20175;-84
2022/05/16 11:50:08;;;;;;;7.07;6.47;;;;;;;33.24;26.20;99624.34;5020632;28;20033;-85
2022/05/16 11:52:57;;;;;;;6.15;5.55;;;;;;;33.05;26.55;99604.75;5052093;28;20059;-86
2022/05/16 12:01:07;;;;;;;6.60;5.88;;;;;;;33.05;26.05;99570.00;5051686;28;20031;-85
2022/05/16 12:03:44;;;;;;;7.13;5.25;;;;;;;33.54;25.21;99622.53;5036303;28;20033;-85
2022/05/16 12:06:40;;;;;;;8.00;6.35;;;;;;;33.85;25.02;99624.97;5052190;28;20056;-85
2022/05/16 12:09:44;;;;;;;7.50;6.90;;;;;;;34.29;25.61;99655.69;5050155;28;20395;-85
2022/05/16 12:12:26;;;;;;;6.63;5.68;;;;;;;33.69;25.64;99580.09;5024678;28;20636;-84